Peoria, IL (61603)

06:30 AM CDT del 22 Maggio 2015 (GMT -0500)
DracoPhyre PWS | | Change Station
CLOSE
Current Station
Stazione meteo personale
Location: Peoria, IL
Altitudine: 640 ft
Stazioni meteo nelle vicinanze

Alt. 640 ft 40.72 °N, 89.59 °W | Updated 15 seconds ago

Sereno
Sereno
50.2 °F
Sembra 50.2 °F
N
0.0
Vento Variabile Vento da Sud
Gusts 0.7 mph

Oggi
Massima -- | Minima -- °F
--% Possibilità di precip.
Ieri
Massima -- | Minima -- °F
Precip. -- in
5:35 AM 8:15 PM
Luna crescente, 20% visible
Pressione 30.15 in
Visibilità 10.0 miglia
Nuvole Sereno
Punto di rugiada 50 °F
Umidità 99%
Piovosità 0.00 in
Spessore del manto nevoso Non disponibile.
Raggi UV 0 fuori da 12
Polline 9.20 fuori da 12
Qualità dell'aria Non disponibile.
Flu Activity Local Activity
METAR KPIA 221054Z VRB03KT 10SM CLR 11/07 A3015 RMK AO2 SLP209 T01060067

More Conditions Fewer Conditions

Pressione 30.15 in
Visibilità 10.0 miglia
Nuvole Sereno
Punto di rugiada 50 °F
Umidità 99%
Piovosità 0.00 in
Spessore del manto nevoso Non disponibile.
Raggi UV 0 fuori da 12
Polline 9.20 fuori da 12
Qualità dell'aria Non disponibile.
Flu Activity Local Activity
METAR KPIA 221054Z VRB03KT 10SM CLR 11/07 A3015 RMK AO2 SLP209 T01060067

More Conditions Fewer Conditions

10-Day Weather Forecast

Almanac

Astronomia

May. 22, 2015 Alba Tramonto
Ora attuale
Crepuscolo civile
Crepuscolo nautico
Crepuscolo astronomico
Luna
Estensione della luce visibile
Lunghezza del giorno
Tomorrow will be .
, % of the Moon is Illuminated

Gli estremi di oggi

State Highs State Lows

Community

WunderPhotos

Upload Photos

1,823,206 foto caricate!

WunderBlogs® & News

Nearby

Qualità dell'aria

  Qualità dell'aria Indice AQ Inquinante
Not available.

Profondità neve

Stazione Profondità Altitudine

Attività sismica

Città  Distanza Mag. Data & Ora
Minimo Magnitudo Mostrato è 2.5.

Temperature delle acque costiere

Località Temperatura

Stations

Stazioni meteo nelle vicinanze

Ubicazione della stazione Temp. Raffreddamento del vento Punto di rugiada Umidità Vento Precip. Alt. Aggiornato Tipo